createdAt,value
2022-10-13T00:00:47.786Z,17.98
2022-10-13T00:03:15.782Z,16.80
2022-10-13T00:05:47.668Z,18.40
2022-10-13T00:08:19.062Z,17.75
2022-10-13T00:10:47.438Z,15.80
2022-10-13T00:13:15.061Z,17.17
2022-10-13T00:15:43.714Z,17.77
2022-10-13T00:18:11.063Z,17.50
2022-10-13T00:20:43.154Z,16.48
2022-10-13T00:23:10.632Z,17.37
2022-10-13T00:25:44.612Z,16.08
2022-10-13T00:28:12.349Z,17.15
2022-10-13T00:30:39.933Z,18.12
2022-10-13T00:33:07.335Z,17.00
2022-10-13T00:35:35.105Z,17.73
2022-10-13T00:38:02.449Z,17.90
2022-10-13T00:40:31.359Z,17.62
2022-10-13T00:42:59.174Z,16.23
2022-10-13T00:45:27.494Z,17.55
2022-10-13T00:47:59.020Z,16.60
2022-10-13T00:50:32.829Z,17.15
2022-10-13T00:53:02.916Z,18.17
2022-10-13T00:55:31.541Z,16.65
2022-10-13T00:58:05.157Z,17.05
2022-10-13T01:00:33.966Z,18.15
2022-10-13T01:03:02.099Z,17.08
2022-10-13T01:05:29.787Z,17.85
2022-10-13T01:07:57.594Z,18.52
2022-10-13T01:10:42.341Z,19.45
2022-10-13T01:13:31.286Z,18.62
2022-10-13T01:16:18.480Z,18.30
2022-10-13T01:19:05.393Z,18.33
2022-10-13T01:21:47.676Z,17.77
2022-10-13T01:24:34.453Z,17.75
2022-10-13T01:27:24.649Z,21.65
2022-10-13T01:30:07.129Z,18.30
2022-10-13T01:32:38.445Z,17.58
2022-10-13T01:35:08.548Z,19.08
2022-10-13T01:38:11.883Z,18.33
2022-10-13T01:41:13.743Z,19.05
2022-10-13T01:44:16.068Z,19.33
2022-10-13T01:46:44.431Z,19.58
2022-10-13T01:49:12.774Z,20.20
2022-10-13T01:51:40.245Z,19.67
2022-10-13T01:54:08.217Z,21.08
2022-10-13T01:56:35.543Z,19.98
2022-10-13T01:59:07.345Z,17.42
2022-10-13T02:01:49.706Z,19.10
2022-10-13T02:06:58.202Z,20.20
2022-10-13T02:09:47.549Z,18.67
2022-10-13T02:12:27.788Z,19.55
2022-10-13T02:14:55.805Z,19.33
2022-10-13T02:17:23.203Z,20.25
2022-10-13T02:19:50.511Z,18.40
2022-10-13T02:22:18.325Z,17.87
2022-10-13T02:24:45.970Z,20.20
2022-10-13T02:27:13.300Z,18.75
2022-10-13T02:29:51.574Z,17.85
2022-10-13T02:32:20.094Z,18.58
2022-10-13T02:34:48.110Z,17.17
2022-10-13T02:37:15.465Z,19.75
2022-10-13T02:39:42.897Z,18.98
2022-10-13T02:42:12.049Z,18.58
2022-10-13T02:44:40.180Z,19.17
2022-10-13T02:47:07.524Z,17.73
2022-10-13T02:49:35.100Z,18.73
2022-10-13T02:52:02.477Z,17.95
2022-10-13T02:54:29.802Z,18.50
2022-10-13T02:56:57.358Z,18.27
2022-10-13T02:59:24.688Z,18.50
2022-10-13T03:01:52.009Z,16.30
2022-10-13T03:04:19.605Z,18.48
2022-10-13T03:06:46.955Z,16.40
2022-10-13T03:09:14.281Z,18.05
2022-10-13T03:11:44.126Z,17.10
2022-10-13T03:14:11.512Z,18.85
2022-10-13T03:16:38.841Z,17.52
2022-10-13T03:19:10.856Z,19.83
2022-10-13T03:21:39.625Z,17.08
2022-10-13T03:24:07.251Z,17.83
2022-10-13T03:26:35.184Z,18.35
2022-10-13T03:29:02.502Z,17.15
2022-10-13T03:31:30.237Z,18.25
2022-10-13T03:34:02.315Z,15.57
2022-10-13T03:36:30.057Z,17.35
2022-10-13T03:38:57.383Z,16.87
2022-10-13T03:41:24.701Z,18.00
2022-10-13T03:43:52.300Z,17.23
2022-10-13T03:46:19.629Z,17.60
2022-10-13T03:48:47.438Z,17.25
2022-10-13T03:51:18.896Z,16.73
2022-10-13T03:53:47.210Z,17.00
2022-10-13T03:56:17.538Z,16.27
2022-10-13T03:58:53.776Z,17.17
2022-10-13T04:01:22.513Z,17.98
2022-10-13T04:03:50.635Z,17.15
2022-10-13T04:06:17.937Z,17.67
2022-10-13T04:08:45.264Z,15.88
2022-10-13T04:11:14.153Z,16.48
2022-10-13T04:13:41.842Z,15.90
2022-10-13T04:16:14.093Z,16.20
2022-10-13T04:18:44.656Z,16.17
2022-10-13T04:21:14.001Z,17.50
2022-10-13T04:23:41.734Z,16.58
2022-10-13T04:26:15.046Z,17.37
2022-10-13T04:28:42.779Z,15.35
2022-10-13T04:31:10.193Z,17.10
2022-10-13T04:33:37.538Z,15.30
2022-10-13T04:36:06.228Z,16.20
2022-10-13T04:38:33.705Z,16.85
2022-10-13T04:41:04.588Z,15.15
2022-10-13T04:43:32.564Z,17.48
2022-10-13T04:46:06.404Z,17.17
2022-10-13T04:48:34.241Z,17.33
2022-10-13T04:51:09.367Z,15.95
2022-10-13T04:53:37.069Z,15.25
2022-10-13T04:56:08.538Z,16.48
2022-10-13T04:58:36.959Z,15.90
2022-10-13T05:01:05.355Z,15.63
2022-10-13T05:03:33.344Z,15.98
2022-10-13T05:06:00.763Z,16.17
2022-10-13T05:08:28.372Z,17.48
2022-10-13T05:11:01.919Z,15.88
2022-10-13T05:13:29.695Z,15.50
2022-10-13T05:15:57.918Z,15.63
2022-10-13T05:18:25.427Z,16.98
2022-10-13T05:20:53.039Z,15.00
2022-10-13T05:23:20.361Z,17.65
2022-10-13T05:25:47.804Z,19.60
2022-10-13T05:28:18.405Z,18.42
2022-10-13T05:30:45.916Z,17.30
2022-10-13T05:33:13.295Z,17.73
2022-10-13T05:35:41.006Z,18.52
2022-10-13T05:38:08.362Z,17.33
2022-10-13T05:40:35.837Z,17.42
2022-10-13T05:43:03.917Z,18.15
2022-10-13T05:45:35.560Z,18.33
2022-10-13T05:48:03.473Z,17.60
2022-10-13T05:50:31.028Z,16.58
2022-10-13T05:52:58.367Z,17.85
2022-10-13T05:55:26.030Z,15.85
2022-10-13T05:57:53.323Z,18.52
2022-10-13T06:00:21.267Z,17.83
2022-10-13T06:02:52.724Z,21.92
2022-10-13T06:05:20.557Z,20.62
2022-10-13T06:07:50.327Z,18.20
2022-10-13T06:10:18.788Z,19.75
2022-10-13T06:12:46.116Z,17.87
2022-10-13T06:15:13.434Z,18.25
2022-10-13T06:17:41.234Z,17.23
2022-10-13T06:20:09.079Z,17.80
2022-10-13T06:22:36.686Z,18.48
2022-10-13T06:25:05.572Z,17.60
2022-10-13T06:27:32.914Z,18.65
2022-10-13T06:30:00.456Z,19.02
2022-10-13T06:32:28.090Z,16.70
2022-10-13T06:34:55.430Z,17.70
2022-10-13T06:37:27.071Z,17.87
2022-10-13T06:39:55.020Z,16.02
2022-10-13T06:42:22.923Z,15.98
2022-10-13T06:44:51.744Z,17.73
2022-10-13T06:47:19.324Z,17.87
2022-10-13T06:49:46.880Z,18.55
2022-10-13T06:52:14.747Z,19.52
2022-10-13T06:54:43.602Z,19.37
2022-10-13T06:57:12.402Z,18.17
2022-10-13T06:59:39.730Z,17.65
2022-10-13T07:02:07.348Z,18.33
2022-10-13T07:04:34.689Z,19.37
2022-10-13T07:07:02.038Z,18.25
2022-10-13T07:09:29.906Z,19.00
2022-10-13T07:11:57.269Z,18.52
2022-10-13T07:14:24.930Z,18.55
2022-10-13T07:16:52.799Z,21.27
2022-10-13T07:19:20.178Z,23.55
2022-10-13T07:21:47.580Z,21.55
2022-10-13T07:24:15.205Z,22.08
2022-10-13T07:26:42.560Z,21.58
2022-10-13T07:29:10.004Z,20.12
2022-10-13T07:31:37.597Z,20.52
2022-10-13T07:34:05.568Z,22.33
2022-10-13T07:36:33.210Z,22.55
2022-10-13T07:39:01.268Z,21.30
2022-10-13T07:41:28.570Z,19.52
2022-10-13T07:43:56.594Z,20.23
2022-10-13T07:46:24.385Z,17.83
2022-10-13T07:48:54.525Z,20.50
2022-10-13T07:51:22.438Z,18.25
2022-10-13T07:53:50.374Z,17.33
2022-10-13T07:56:17.739Z,15.68
2022-10-13T07:58:46.174Z,17.02
2022-10-13T08:01:14.382Z,15.50
2022-10-13T08:03:45.623Z,17.50
2022-10-13T08:06:16.934Z,16.92
2022-10-13T08:08:44.557Z,17.62
2022-10-13T08:11:16.461Z,20.60
2022-10-13T08:13:51.141Z,17.65
2022-10-13T08:16:20.985Z,16.10
2022-10-13T08:18:48.685Z,13.32
2022-10-13T08:21:52.840Z,14.75
2022-10-13T08:24:06.517Z,13.73
2022-10-13T08:26:33.845Z,12.60
2022-10-13T08:34:17.071Z,8.27
2022-10-13T08:36:44.575Z,10.57
2022-10-13T08:39:12.945Z,8.93
2022-10-13T08:41:41.564Z,9.02
2022-10-13T08:45:10.518Z,10.45
2022-10-13T08:47:24.609Z,8.77
2022-10-13T08:49:55.375Z,10.43
2022-10-13T08:52:27.731Z,8.27
2022-10-13T08:54:55.599Z,7.90
2022-10-13T08:57:24.634Z,6.75
2022-10-13T08:59:52.611Z,7.90
2022-10-13T09:02:26.503Z,7.57
2022-10-13T09:04:54.211Z,7.95
2022-10-13T09:07:27.210Z,7.37
2022-10-13T09:09:55.473Z,7.12
2022-10-13T09:12:25.149Z,8.00
2022-10-13T09:15:03.358Z,8.30
2022-10-13T09:17:31.209Z,7.03
2022-10-13T09:20:02.386Z,8.93
2022-10-13T09:22:39.565Z,8.02
2022-10-13T09:25:07.068Z,7.95
2022-10-13T09:27:49.282Z,8.93
2022-10-13T09:30:28.473Z,8.48
2022-10-13T09:33:13.678Z,8.90
2022-10-13T09:36:11.027Z,11.30
2022-10-13T09:38:39.270Z,10.25
2022-10-13T09:41:13.668Z,10.50
2022-10-13T09:43:47.826Z,10.98
2022-10-13T09:46:21.805Z,12.35
2022-10-13T09:48:52.818Z,11.40
2022-10-13T09:51:34.992Z,12.18
2022-10-13T09:54:35.661Z,11.20
2022-10-13T09:57:40.164Z,10.60
2022-10-13T10:00:17.083Z,12.00
2022-10-13T10:03:03.002Z,12.10
2022-10-13T10:05:52.270Z,12.57
2022-10-13T10:09:01.580Z,12.32
2022-10-13T10:11:33.573Z,12.27
2022-10-13T10:14:10.344Z,12.70
2022-10-13T10:16:41.823Z,11.73
2022-10-13T10:19:47.795Z,12.45
2022-10-13T10:22:48.824Z,13.77
2022-10-13T10:25:38.727Z,11.90
2022-10-13T10:28:32.704Z,12.50
2022-10-13T10:31:09.374Z,12.05
2022-10-13T10:36:27.100Z,12.70
2022-10-13T10:38:56.356Z,13.32
2022-10-13T10:41:48.663Z,13.40
2022-10-13T10:44:17.475Z,13.43
2022-10-13T10:46:49.048Z,10.80
2022-10-13T10:49:34.994Z,13.70
2022-10-13T10:52:06.037Z,12.98
2022-10-13T10:55:20.634Z,13.48
2022-10-13T10:58:05.260Z,15.07
2022-10-13T11:00:37.563Z,13.93
2022-10-13T11:03:26.139Z,13.98
2022-10-13T11:06:26.421Z,14.32
2022-10-13T11:08:55.388Z,13.20
2022-10-13T11:11:25.113Z,13.38
2022-10-13T11:13:59.411Z,13.65
2022-10-13T11:16:31.842Z,11.85
2022-10-13T11:19:05.834Z,14.25
2022-10-13T11:21:55.226Z,14.27
2022-10-13T11:24:49.877Z,13.70
2022-10-13T11:27:19.864Z,12.90
2022-10-13T11:29:48.853Z,12.98
2022-10-13T11:32:30.419Z,12.77
2022-10-13T11:34:57.828Z,13.77
2022-10-13T11:37:29.410Z,13.05
2022-10-13T11:40:32.590Z,12.90
2022-10-13T11:43:31.369Z,14.65
2022-10-13T11:46:22.110Z,13.80
2022-10-13T11:49:06.064Z,12.75
2022-10-13T11:51:57.116Z,14.13
2022-10-13T11:54:40.965Z,13.35
2022-10-13T11:57:21.175Z,13.25
2022-10-13T11:59:49.936Z,11.35
2022-10-13T12:02:23.683Z,13.10
2022-10-13T12:05:08.823Z,13.35
2022-10-13T12:07:39.482Z,11.68
2022-10-13T12:10:08.257Z,12.10
2022-10-13T12:12:35.714Z,12.57
2022-10-13T12:15:26.301Z,13.62
2022-10-13T12:17:53.909Z,12.60
2022-10-13T12:20:23.504Z,11.73
2022-10-13T12:22:51.316Z,12.85
2022-10-13T12:25:20.339Z,11.20
2022-10-13T12:27:51.366Z,12.25
2022-10-13T12:30:26.033Z,13.70
2022-10-13T12:32:55.477Z,11.75
2022-10-13T12:35:25.421Z,11.73
2022-10-13T12:37:53.197Z,11.82
2022-10-13T12:40:20.815Z,10.93
2022-10-13T12:42:48.823Z,11.52
2022-10-13T12:45:20.236Z,11.30
2022-10-13T12:47:50.137Z,12.23
2022-10-13T12:50:27.471Z,10.88
2022-10-13T12:53:13.827Z,11.40
2022-10-13T12:58:39.153Z,12.13
2022-10-13T13:01:12.507Z,12.68
2022-10-13T13:03:40.864Z,12.77
2022-10-13T13:06:10.294Z,14.27
2022-10-13T13:08:39.778Z,14.02
2022-10-13T13:11:19.890Z,13.45
2022-10-13T13:13:48.053Z,11.70
2022-10-13T13:16:20.268Z,13.15
2022-10-13T13:18:48.491Z,12.43
2022-10-13T13:21:19.132Z,13.38
2022-10-13T13:23:51.223Z,12.93
2022-10-13T13:26:22.749Z,12.18
2022-10-13T13:28:54.643Z,13.13
2022-10-13T13:31:23.533Z,11.50
2022-10-13T13:33:51.013Z,11.93
2022-10-13T13:36:23.347Z,11.90
2022-10-13T13:38:53.012Z,11.35
2022-10-13T13:41:20.382Z,13.62
2022-10-13T13:43:48.063Z,13.10
2022-10-13T13:46:25.665Z,13.18
2022-10-13T13:48:53.126Z,12.15
2022-10-13T13:51:21.050Z,13.07
2022-10-13T13:53:48.476Z,12.37
2022-10-13T13:56:19.244Z,12.10
2022-10-13T13:58:46.880Z,12.68
2022-10-13T14:01:14.396Z,12.95
2022-10-13T14:03:42.081Z,11.40
2022-10-13T14:06:19.335Z,12.77
2022-10-13T14:08:46.945Z,11.57
2022-10-13T14:11:14.318Z,11.15
2022-10-13T14:13:41.756Z,10.65
2022-10-13T14:16:09.516Z,11.90
2022-10-13T14:18:36.812Z,11.25
2022-10-13T14:21:07.641Z,16.90
2022-10-13T14:23:35.563Z,15.13
2022-10-13T14:26:07.946Z,14.98
2022-10-13T14:28:35.563Z,14.35
2022-10-13T14:31:06.644Z,11.25
2022-10-13T14:33:35.609Z,12.30
2022-10-13T14:36:04.761Z,11.55
2022-10-13T14:38:32.696Z,11.50
2022-10-13T14:41:04.906Z,11.43
2022-10-13T14:43:32.919Z,12.13
2022-10-13T14:46:04.222Z,13.55
2022-10-13T14:48:32.668Z,12.75
2022-10-13T14:51:00.181Z,12.88
2022-10-13T14:53:28.372Z,12.23
2022-10-13T14:55:55.974Z,12.65
2022-10-13T14:58:23.351Z,12.00
2022-10-13T15:00:51.938Z,12.48
2022-10-13T15:03:19.602Z,12.45
2022-10-13T15:05:46.976Z,12.93
2022-10-13T15:08:18.091Z,12.02
2022-10-13T15:10:45.762Z,14.48
2022-10-13T15:13:13.080Z,16.90
2022-10-13T15:15:46.676Z,14.07
2022-10-13T15:18:14.262Z,21.12
2022-10-13T15:20:46.381Z,20.70
2022-10-13T15:23:14.551Z,19.40
2022-10-13T15:25:56.409Z,17.40
2022-10-13T15:28:24.658Z,18.35
2022-10-13T15:30:52.062Z,18.37
2022-10-13T15:33:21.918Z,18.45
2022-10-13T15:35:50.269Z,20.77
2022-10-13T15:38:17.990Z,20.17
2022-10-13T15:40:45.688Z,17.80
2022-10-13T15:43:13.300Z,17.33
2022-10-13T15:45:40.642Z,18.62
2022-10-13T15:48:08.676Z,16.70
2022-10-13T15:50:38.984Z,17.05
2022-10-13T15:53:06.801Z,21.62
2022-10-13T15:55:34.487Z,16.98
2022-10-13T15:58:02.462Z,20.92
2022-10-13T16:00:29.805Z,17.50
2022-10-13T16:02:57.422Z,16.77
2022-10-13T16:05:24.740Z,18.67
2022-10-13T16:07:52.044Z,18.02
2022-10-13T16:10:19.636Z,23.42
2022-10-13T16:12:49.645Z,19.98
2022-10-13T16:15:18.010Z,18.42
2022-10-13T16:17:46.480Z,17.85
2022-10-13T16:20:14.014Z,19.75
2022-10-13T16:22:41.336Z,18.55
2022-10-13T16:25:09.607Z,20.02
2022-10-13T16:27:40.432Z,16.92
2022-10-13T16:30:11.233Z,15.70
2022-10-13T16:32:39.473Z,15.82
2022-10-13T16:35:07.401Z,15.07
2022-10-13T16:37:35.012Z,13.30
2022-10-13T16:40:02.344Z,14.93
2022-10-13T16:42:29.732Z,14.65
2022-10-13T16:44:57.629Z,14.02
2022-10-13T16:47:27.569Z,14.68
2022-10-13T16:49:54.925Z,15.20
2022-10-13T16:52:24.372Z,15.13
2022-10-13T16:54:52.534Z,16.27
2022-10-13T16:57:20.163Z,54.83
2022-10-13T16:59:48.542Z,25.73
2022-10-13T17:02:15.908Z,35.08
2022-10-13T17:04:43.241Z,27.92
2022-10-13T17:07:10.815Z,25.60
2022-10-13T17:09:38.353Z,24.23
2022-10-13T17:12:05.873Z,28.23
2022-10-13T17:14:33.497Z,27.20
2022-10-13T17:17:00.822Z,25.75
2022-10-13T17:19:28.157Z,24.67
2022-10-13T17:21:55.789Z,23.15
2022-10-13T17:24:23.504Z,24.75
2022-10-13T17:26:51.120Z,23.10
2022-10-13T17:29:18.716Z,22.92
2022-10-13T17:31:46.096Z,24.50
2022-10-13T17:34:13.409Z,24.08
2022-10-13T17:36:41.003Z,24.92
2022-10-13T17:39:09.319Z,21.42
2022-10-13T17:41:38.720Z,20.60
2022-10-13T17:44:06.310Z,20.40
2022-10-13T17:46:38.723Z,18.87
2022-10-13T17:49:07.951Z,18.10
2022-10-13T17:51:35.303Z,18.60
2022-10-13T17:54:02.636Z,18.25
2022-10-13T17:56:30.285Z,21.35
2022-10-13T17:58:57.843Z,20.20
2022-10-13T18:01:27.086Z,20.25
2022-10-13T18:03:58.835Z,22.27
2022-10-13T18:06:36.709Z,21.33
2022-10-13T18:09:06.796Z,20.08
2022-10-13T18:11:35.234Z,16.85
2022-10-13T18:14:02.571Z,16.17
2022-10-13T18:16:30.190Z,17.12
2022-10-13T18:18:57.495Z,16.10
2022-10-13T18:21:27.735Z,14.90
2022-10-13T18:23:56.099Z,14.40
2022-10-13T18:26:23.704Z,15.05
2022-10-13T18:28:51.351Z,15.43
2022-10-13T18:31:27.707Z,15.15
2022-10-13T18:33:59.239Z,13.50
2022-10-13T18:36:38.443Z,13.40
2022-10-13T18:39:12.333Z,14.68
2022-10-13T18:41:40.894Z,14.52
2022-10-13T18:44:08.348Z,15.57
2022-10-13T18:46:36.498Z,16.08
2022-10-13T18:49:08.254Z,14.73
2022-10-13T18:51:37.736Z,15.98
2022-10-13T18:54:05.515Z,18.90
2022-10-13T18:56:33.322Z,21.42
2022-10-13T18:59:01.436Z,20.37
2022-10-13T19:01:30.841Z,18.85
2022-10-13T19:03:58.242Z,18.30
2022-10-13T19:06:27.054Z,16.25
2022-10-13T19:09:00.563Z,16.10
2022-10-13T19:11:28.306Z,15.93
2022-10-13T19:13:56.055Z,16.15
2022-10-13T19:16:24.189Z,16.70
2022-10-13T19:18:51.872Z,15.52
2022-10-13T19:21:19.764Z,18.15
2022-10-13T19:23:47.193Z,17.25
2022-10-13T19:26:17.899Z,18.00
